createdAt,value
2017-11-21T00:02:02.833Z,48.34
2017-11-21T00:04:31.074Z,48.34
2017-11-21T00:06:59.374Z,48.39
2017-11-21T00:09:27.614Z,48.37
2017-11-21T00:11:55.938Z,48.38
2017-11-21T00:14:24.236Z,48.37
2017-11-21T00:16:52.545Z,48.29
2017-11-21T00:19:20.851Z,48.31
2017-11-21T00:21:49.183Z,48.33
2017-11-21T00:24:17.453Z,48.32
2017-11-21T00:26:45.815Z,48.28
2017-11-21T00:29:14.258Z,48.24
2017-11-21T00:31:42.762Z,48.21
2017-11-21T00:34:11.020Z,48.19
2017-11-21T00:36:39.359Z,48.20
2017-11-21T00:39:07.622Z,48.18
2017-11-21T00:41:35.970Z,48.19
2017-11-21T00:44:04.214Z,48.22
2017-11-21T00:46:32.645Z,48.20
2017-11-21T00:49:00.893Z,48.19
2017-11-21T00:51:29.172Z,48.19
2017-11-21T00:53:57.456Z,48.23
2017-11-21T00:56:25.759Z,48.21
2017-11-21T00:58:54.010Z,48.23
2017-11-21T01:01:22.297Z,48.22
2017-11-21T01:03:50.570Z,48.27
2017-11-21T01:06:18.869Z,48.30
2017-11-21T01:08:47.189Z,48.29
2017-11-21T01:11:15.479Z,48.32
2017-11-21T01:13:43.923Z,48.28
2017-11-21T01:16:12.478Z,48.29
2017-11-21T01:18:40.746Z,48.34
2017-11-21T01:21:09.124Z,48.37
2017-11-21T01:23:37.455Z,48.35
2017-11-21T01:26:05.746Z,48.37
2017-11-21T01:28:34.190Z,48.40
2017-11-21T01:31:02.523Z,48.42
2017-11-21T01:33:30.761Z,48.44
2017-11-21T01:35:59.068Z,48.42
2017-11-21T01:38:27.318Z,48.44
2017-11-21T01:40:55.606Z,48.42
2017-11-21T01:43:24.877Z,48.39
2017-11-21T01:45:53.193Z,48.41
2017-11-21T01:48:21.512Z,48.39
2017-11-21T01:50:49.797Z,48.39
2017-11-21T01:53:18.170Z,48.38
2017-11-21T01:55:46.462Z,48.35
2017-11-21T01:58:14.718Z,48.36
2017-11-21T02:00:42.992Z,48.35
2017-11-21T02:03:11.602Z,48.33
2017-11-21T02:05:39.879Z,48.32
2017-11-21T02:08:09.671Z,48.35
2017-11-21T02:10:39.440Z,48.33
2017-11-21T02:13:10.955Z,48.33
2017-11-21T02:15:40.383Z,48.34
2017-11-21T02:18:08.670Z,48.36
2017-11-21T02:20:37.170Z,48.31
2017-11-21T02:23:06.926Z,48.32
2017-11-21T02:25:35.730Z,48.29
2017-11-21T02:28:04.158Z,48.31
2017-11-21T02:30:32.498Z,48.32
2017-11-21T02:33:00.771Z,48.32
2017-11-21T02:35:29.246Z,48.34
2017-11-21T02:38:01.250Z,48.28
2017-11-21T02:40:29.639Z,48.32
2017-11-21T02:42:57.933Z,48.29
2017-11-21T02:45:26.988Z,48.29
2017-11-21T02:47:55.800Z,48.29
2017-11-21T02:50:25.282Z,48.26
2017-11-21T02:52:54.274Z,48.30
2017-11-21T02:55:22.738Z,48.31
2017-11-21T02:57:51.023Z,48.29
2017-11-21T03:00:19.315Z,48.26
2017-11-21T03:02:47.624Z,48.30
2017-11-21T03:05:15.910Z,48.26
2017-11-21T03:07:44.171Z,48.27
2017-11-21T03:10:12.442Z,48.22
2017-11-21T03:12:41.319Z,48.27
2017-11-21T03:15:09.634Z,48.28
2017-11-21T03:17:37.916Z,48.27
2017-11-21T03:20:06.297Z,48.26
2017-11-21T03:24:47.827Z,48.22
2017-11-21T03:27:16.160Z,48.24
2017-11-21T03:29:44.491Z,48.31
2017-11-21T03:32:13.186Z,48.28
2017-11-21T03:34:41.655Z,48.31
2017-11-21T03:37:09.985Z,48.27
2017-11-21T03:39:38.376Z,48.22
2017-11-21T03:42:06.655Z,48.21
2017-11-21T03:44:35.399Z,48.22
2017-11-21T03:47:04.921Z,48.21
2017-11-21T03:49:33.323Z,48.25
2017-11-21T03:52:01.849Z,48.28
2017-11-21T03:54:30.354Z,48.27
2017-11-21T03:56:58.782Z,48.26
2017-11-21T03:59:27.219Z,48.21
2017-11-21T04:01:55.546Z,48.26
2017-11-21T04:04:26.730Z,48.24
2017-11-21T04:06:55.258Z,48.25
2017-11-21T04:09:23.703Z,48.29
2017-11-21T04:11:52.047Z,48.21
2017-11-21T04:14:20.495Z,48.26
2017-11-21T04:16:48.869Z,48.21
2017-11-21T04:19:17.167Z,48.21
2017-11-21T04:21:45.651Z,48.15
2017-11-21T04:24:15.933Z,48.13
2017-11-21T04:26:44.370Z,48.15
2017-11-21T04:29:12.647Z,48.02
2017-11-21T04:31:41.000Z,48.01
2017-11-21T04:34:09.275Z,48.02
2017-11-21T04:36:37.600Z,47.97
2017-11-21T04:39:05.913Z,47.97
2017-11-21T04:41:34.209Z,47.96
2017-11-21T04:44:02.474Z,47.89
2017-11-21T04:46:30.866Z,47.99
2017-11-21T04:48:59.137Z,47.91
2017-11-21T04:51:27.456Z,47.99
2017-11-21T04:53:55.710Z,47.94
2017-11-21T04:56:24.030Z,47.93
2017-11-21T04:58:52.633Z,47.90
2017-11-21T05:04:16.573Z,47.95
2017-11-21T05:06:44.924Z,47.95
2017-11-21T05:09:13.198Z,47.96
2017-11-21T05:11:41.549Z,47.94
2017-11-21T05:14:09.805Z,47.89
2017-11-21T05:16:38.173Z,47.91
2017-11-21T05:19:06.456Z,47.86
2017-11-21T05:21:34.797Z,47.91
2017-11-21T05:24:03.098Z,47.92
2017-11-21T05:26:31.460Z,47.92
2017-11-21T05:28:59.737Z,47.97
2017-11-21T05:31:28.068Z,47.92
2017-11-21T05:33:56.344Z,48.04
2017-11-21T05:36:24.701Z,47.94
2017-11-21T05:38:52.989Z,47.94
2017-11-21T05:41:21.356Z,48.03
2017-11-21T05:43:53.544Z,48.03
2017-11-21T05:46:22.071Z,48.11
2017-11-21T05:48:51.794Z,48.05
2017-11-21T05:51:21.185Z,48.11
2017-11-21T05:53:49.497Z,48.03
2017-11-21T05:56:18.168Z,47.99
2017-11-21T05:58:47.576Z,48.04
2017-11-21T06:01:16.409Z,48.11
2017-11-21T06:03:44.851Z,48.08
2017-11-21T06:06:13.169Z,48.06
2017-11-21T06:08:41.488Z,48.13
2017-11-21T06:11:09.804Z,48.09
2017-11-21T06:13:38.128Z,48.17
2017-11-21T06:16:06.711Z,48.38
2017-11-21T06:18:34.992Z,48.47
2017-11-21T06:21:03.304Z,48.35
2017-11-21T06:23:31.627Z,48.32
2017-11-21T06:25:59.995Z,48.25
2017-11-21T06:28:28.357Z,47.84
2017-11-21T06:30:56.670Z,47.70
2017-11-21T06:33:24.981Z,47.73
2017-11-21T06:35:53.295Z,47.63
2017-11-21T06:38:21.671Z,47.60
2017-11-21T06:40:49.978Z,47.62
2017-11-21T06:43:18.326Z,47.99
2017-11-21T06:45:46.843Z,48.11
2017-11-21T06:48:15.146Z,48.35
2017-11-21T06:50:43.464Z,48.45
2017-11-21T06:53:11.750Z,48.66
2017-11-21T06:55:40.088Z,48.74
2017-11-21T06:58:08.568Z,48.85
2017-11-21T07:00:37.082Z,48.85
2017-11-21T07:03:05.358Z,49.06
2017-11-21T07:05:33.694Z,49.23
2017-11-21T07:08:02.046Z,49.15
2017-11-21T07:10:30.405Z,49.38
2017-11-21T07:12:58.727Z,49.49
2017-11-21T07:15:27.052Z,49.67
2017-11-21T07:17:55.408Z,49.85
2017-11-21T07:20:23.740Z,49.82
2017-11-21T07:22:52.047Z,49.94
2017-11-21T07:25:20.386Z,49.92
2017-11-21T07:27:48.694Z,49.94
2017-11-21T07:30:17.024Z,49.79
2017-11-21T07:32:45.414Z,49.74
2017-11-21T07:35:13.925Z,49.82
2017-11-21T07:37:42.256Z,49.97
2017-11-21T07:40:10.586Z,49.93
2017-11-21T07:42:38.957Z,50.07
2017-11-21T07:45:07.654Z,50.10
2017-11-21T07:47:35.980Z,50.03
2017-11-21T07:50:04.339Z,49.94
2017-11-21T07:52:32.641Z,49.84
2017-11-21T07:55:00.958Z,49.76
2017-11-21T07:57:29.342Z,49.73
2017-11-21T07:59:57.647Z,49.76
2017-11-21T08:02:25.988Z,49.80
2017-11-21T08:04:54.549Z,49.76
2017-11-21T08:07:22.948Z,49.78
2017-11-21T08:09:51.344Z,49.77
2017-11-21T08:12:19.837Z,49.72
2017-11-21T08:14:48.130Z,49.67
2017-11-21T08:17:16.469Z,49.60
2017-11-21T08:19:44.762Z,49.55
2017-11-21T08:22:13.127Z,49.47
2017-11-21T08:24:41.463Z,49.43
2017-11-21T08:27:09.865Z,49.40
2017-11-21T08:29:38.202Z,49.30
2017-11-21T08:32:06.587Z,49.24
2017-11-21T08:34:34.845Z,49.24
2017-11-21T08:37:03.228Z,49.30
2017-11-21T08:39:31.790Z,49.36
2017-11-21T08:42:00.517Z,49.32
2017-11-21T08:44:28.838Z,49.35
2017-11-21T08:46:57.801Z,49.37
2017-11-21T08:49:27.639Z,49.33
2017-11-21T08:51:56.009Z,49.28
2017-11-21T08:54:24.297Z,49.31
2017-11-21T08:56:52.813Z,49.31
2017-11-21T08:59:21.117Z,49.31
2017-11-21T09:01:49.488Z,49.31
2017-11-21T09:04:17.814Z,49.30
2017-11-21T09:06:46.202Z,49.33
2017-11-21T09:09:14.512Z,49.30
2017-11-21T09:11:43.084Z,49.31
2017-11-21T09:14:11.532Z,49.31
2017-11-21T09:16:39.845Z,49.33
2017-11-21T09:19:08.221Z,49.31
2017-11-21T09:21:36.629Z,49.33
2017-11-21T09:24:04.918Z,49.60
2017-11-21T09:26:33.210Z,49.50
2017-11-21T09:29:01.498Z,49.61
2017-11-21T09:31:29.797Z,49.41
2017-11-21T09:33:58.089Z,49.33
2017-11-21T09:36:26.441Z,49.22
2017-11-21T09:38:54.782Z,49.11
2017-11-21T09:41:23.120Z,48.83
2017-11-21T09:43:51.437Z,48.65
2017-11-21T09:46:19.805Z,48.35
2017-11-21T09:48:48.120Z,48.52
2017-11-21T09:51:16.452Z,48.73
2017-11-21T09:53:44.786Z,48.71
2017-11-21T09:56:13.260Z,48.86
2017-11-21T09:58:41.652Z,48.77
2017-11-21T10:01:10.143Z,48.77
2017-11-21T10:03:38.437Z,48.77
2017-11-21T10:06:06.931Z,48.78
2017-11-21T10:08:35.282Z,48.77
2017-11-21T10:11:03.603Z,48.75
2017-11-21T10:13:31.897Z,48.60
2017-11-21T10:16:00.197Z,48.77
2017-11-21T10:18:28.477Z,48.72
2017-11-21T10:20:56.773Z,48.53
2017-11-21T10:23:25.242Z,48.58
2017-11-21T10:25:53.592Z,48.44
2017-11-21T10:28:21.976Z,48.55
2017-11-21T10:30:50.288Z,48.55
2017-11-21T10:33:18.594Z,48.38
2017-11-21T10:35:46.920Z,48.38
2017-11-21T10:38:15.237Z,48.40
2017-11-21T10:40:43.580Z,48.37
2017-11-21T10:43:11.928Z,48.53
2017-11-21T10:45:40.229Z,48.63
2017-11-21T10:48:08.533Z,48.71
2017-11-21T10:50:36.887Z,48.75
2017-11-21T10:53:05.216Z,48.79
2017-11-21T10:55:33.571Z,48.81
2017-11-21T10:58:01.912Z,48.84
2017-11-21T11:00:30.701Z,48.89
2017-11-21T11:02:58.993Z,48.87
2017-11-21T11:05:27.288Z,48.90
2017-11-21T11:07:55.557Z,48.92
2017-11-21T11:10:23.858Z,48.94
2017-11-21T11:12:52.150Z,49.01
2017-11-21T11:15:20.505Z,49.04
2017-11-21T11:17:48.949Z,49.07
2017-11-21T11:20:17.289Z,49.10
2017-11-21T11:22:45.728Z,49.07
2017-11-21T11:25:14.035Z,49.12
2017-11-21T11:27:42.749Z,49.20
2017-11-21T11:30:11.069Z,49.19
2017-11-21T11:32:39.401Z,49.15
2017-11-21T11:35:07.786Z,49.10
2017-11-21T11:37:36.115Z,49.13
2017-11-21T11:40:04.462Z,48.99
2017-11-21T11:42:32.749Z,48.87
2017-11-21T11:45:00.997Z,48.94
2017-11-21T11:47:29.370Z,48.85
2017-11-21T11:49:57.670Z,48.78
2017-11-21T11:52:26.029Z,48.65
2017-11-21T11:54:54.363Z,48.47
2017-11-21T11:57:22.765Z,48.53
2017-11-21T11:59:51.073Z,48.45
2017-11-21T12:02:19.404Z,48.10
2017-11-21T12:04:47.696Z,48.13
2017-11-21T12:07:16.085Z,48.25
2017-11-21T12:09:44.426Z,48.23
2017-11-21T12:12:12.789Z,48.27
2017-11-21T12:14:41.113Z,48.42
2017-11-21T12:17:09.441Z,48.47
2017-11-21T12:19:37.735Z,48.52
2017-11-21T12:22:06.122Z,48.55
2017-11-21T12:24:34.477Z,48.58
2017-11-21T12:27:02.802Z,48.64
2017-11-21T12:29:31.129Z,48.68
2017-11-21T12:31:59.448Z,48.74
2017-11-21T12:34:27.720Z,48.84
2017-11-21T12:36:56.058Z,48.85
2017-11-21T12:39:24.456Z,48.88
2017-11-21T12:41:52.809Z,48.87
2017-11-21T12:44:21.345Z,48.90
2017-11-21T12:46:49.755Z,48.92
2017-11-21T12:49:18.078Z,48.93
2017-11-21T12:51:46.434Z,48.97
2017-11-21T12:54:14.757Z,48.98
2017-11-21T12:56:43.077Z,48.98
2017-11-21T12:59:11.402Z,49.01
2017-11-21T13:01:39.741Z,48.99
2017-11-21T13:04:08.090Z,49.33
2017-11-21T13:06:36.422Z,49.57
2017-11-21T13:09:19.152Z,49.66
2017-11-21T13:11:47.517Z,50.11
2017-11-21T13:14:16.012Z,50.35
2017-11-21T13:16:44.412Z,50.59
2017-11-21T13:19:12.721Z,51.14
2017-11-21T13:21:41.105Z,51.20
2017-11-21T13:24:09.474Z,51.71
2017-11-21T13:26:37.826Z,51.81
2017-11-21T13:29:06.117Z,51.85
2017-11-21T13:31:34.528Z,52.58
2017-11-21T13:34:02.821Z,52.37
2017-11-21T13:36:31.273Z,52.61
2017-11-21T13:38:59.794Z,52.82
2017-11-21T13:41:28.216Z,52.95
2017-11-21T13:43:56.622Z,53.74
2017-11-21T13:46:25.391Z,52.63
2017-11-21T13:48:53.749Z,52.57
2017-11-21T13:51:22.093Z,53.49
2017-11-21T13:53:50.446Z,53.22
2017-11-21T13:56:18.796Z,52.52
2017-11-21T13:58:47.125Z,52.76
2017-11-21T14:01:16.011Z,52.24
2017-11-21T14:03:45.743Z,51.98
2017-11-21T14:06:14.102Z,52.20
2017-11-21T14:08:42.397Z,51.97
2017-11-21T14:11:11.313Z,51.78
2017-11-21T14:13:40.788Z,51.68
2017-11-21T14:16:10.409Z,51.52
2017-11-21T14:18:42.695Z,51.30
2017-11-21T14:21:13.247Z,51.29
2017-11-21T14:23:42.150Z,51.41
2017-11-21T14:26:12.374Z,51.18
2017-11-21T14:28:41.321Z,51.01
2017-11-21T14:31:09.644Z,51.00
2017-11-21T14:33:37.997Z,50.97
2017-11-21T14:36:06.376Z,50.89
2017-11-21T14:38:34.771Z,50.57
2017-11-21T14:41:03.149Z,50.46
2017-11-21T14:43:31.499Z,50.41
2017-11-21T14:45:59.848Z,50.12
2017-11-21T14:48:28.382Z,49.96
2017-11-21T14:50:56.709Z,50.04
2017-11-21T14:53:25.121Z,49.90
2017-11-21T14:55:53.447Z,49.85
2017-11-21T14:58:21.828Z,49.84
2017-11-21T15:00:50.174Z,49.60
2017-11-21T15:03:18.493Z,49.42
2017-11-21T15:05:46.833Z,49.71
2017-11-21T15:08:15.176Z,49.60
2017-11-21T15:10:43.709Z,49.70
2017-11-21T15:13:12.086Z,48.56
2017-11-21T15:15:40.397Z,46.46
2017-11-21T15:18:08.684Z,46.04
2017-11-21T15:20:36.973Z,45.46
2017-11-21T15:23:05.287Z,45.23
2017-11-21T15:25:33.908Z,45.06
2017-11-21T15:28:02.432Z,44.93
2017-11-21T15:30:30.748Z,45.08
2017-11-21T15:32:59.164Z,45.53
2017-11-21T15:35:27.477Z,46.25
2017-11-21T15:37:55.762Z,46.77
2017-11-21T15:40:24.242Z,46.96
2017-11-21T15:42:52.589Z,47.11
2017-11-21T15:45:20.914Z,47.00
2017-11-21T15:47:49.415Z,46.99
2017-11-21T15:50:17.697Z,47.01
2017-11-21T15:52:46.088Z,47.00
2017-11-21T15:55:14.564Z,46.99
2017-11-21T15:57:42.881Z,47.02
2017-11-21T16:00:11.326Z,47.27
2017-11-21T16:02:41.615Z,47.18
2017-11-21T16:05:09.947Z,47.25
2017-11-21T16:07:38.244Z,47.33
2017-11-21T16:10:06.701Z,47.21
2017-11-21T16:12:35.048Z,47.25
2017-11-21T16:15:03.380Z,47.31
2017-11-21T16:17:31.775Z,47.18
2017-11-21T16:20:00.057Z,47.31
2017-11-21T16:22:28.393Z,47.28
2017-11-21T16:24:57.080Z,47.24
2017-11-21T16:27:25.413Z,47.08
2017-11-21T16:29:53.721Z,47.11
2017-11-21T16:32:22.052Z,47.04
2017-11-21T16:34:50.529Z,47.26
2017-11-21T16:37:18.836Z,47.31
2017-11-21T16:39:47.128Z,46.93
2017-11-21T16:42:15.493Z,47.02
2017-11-21T16:44:43.800Z,46.87
2017-11-21T16:47:12.186Z,46.79
2017-11-21T16:49:40.538Z,46.75
2017-11-21T16:52:08.874Z,46.85
2017-11-21T16:54:37.176Z,47.10
2017-11-21T16:57:05.744Z,47.19
2017-11-21T16:59:36.342Z,47.23
2017-11-21T17:02:05.116Z,47.33
2017-11-21T17:04:33.393Z,47.32
2017-11-21T17:07:01.884Z,47.44
2017-11-21T17:09:30.212Z,47.44
2017-11-21T17:11:58.540Z,47.54
2017-11-21T17:14:26.843Z,47.55
2017-11-21T17:16:55.176Z,47.62
2017-11-21T17:19:23.465Z,47.71
2017-11-21T17:21:52.477Z,47.71
2017-11-21T17:24:21.102Z,47.65
2017-11-21T17:26:49.812Z,47.78
2017-11-21T17:29:19.144Z,47.83
2017-11-21T17:31:47.700Z,47.91
2017-11-21T17:34:16.071Z,47.84
2017-11-21T17:36:44.364Z,48.00
2017-11-21T17:39:12.657Z,47.95
2017-11-21T17:41:40.996Z,48.04
2017-11-21T17:44:09.758Z,48.12
2017-11-21T17:46:39.045Z,48.04
2017-11-21T17:49:07.348Z,48.12
2017-11-21T17:51:35.640Z,48.23
2017-11-21T17:54:03.912Z,48.27
2017-11-21T17:56:32.229Z,48.18
2017-11-21T17:59:00.561Z,48.31
2017-11-21T18:01:28.896Z,48.34
2017-11-21T18:03:57.200Z,48.38
2017-11-21T18:06:25.512Z,48.35
2017-11-21T18:08:56.201Z,48.47
2017-11-21T18:11:25.358Z,48.40
2017-11-21T18:13:54.941Z,48.36
2017-11-21T18:16:24.416Z,48.27
2017-11-21T18:18:53.785Z,48.32
2017-11-21T18:21:22.168Z,48.42
2017-11-21T18:23:50.594Z,48.32
2017-11-21T18:26:19.356Z,48.26
2017-11-21T18:28:47.781Z,48.30
2017-11-21T18:31:16.599Z,48.33
2017-11-21T18:33:46.078Z,48.23
2017-11-21T18:36:15.413Z,48.36
2017-11-21T18:38:43.712Z,48.35
2017-11-21T18:41:12.053Z,48.35
2017-11-21T18:43:40.350Z,48.26
2017-11-21T18:46:08.776Z,48.40
2017-11-21T18:48:37.060Z,48.46
2017-11-21T18:51:05.731Z,48.48
2017-11-21T18:53:33.988Z,48.42
2017-11-21T18:56:04.828Z,48.56
2017-11-21T18:58:33.325Z,48.53
2017-11-21T19:01:02.528Z,48.55
2017-11-21T19:03:32.293Z,48.55
2017-11-21T19:06:00.614Z,48.53
2017-11-21T19:08:28.887Z,48.47
2017-11-21T19:10:57.208Z,48.50
2017-11-21T19:13:25.511Z,48.41
2017-11-21T19:15:53.869Z,48.43
2017-11-21T19:18:23.984Z,48.36
2017-11-21T19:20:53.677Z,48.29
2017-11-21T19:23:21.949Z,48.34
2017-11-21T19:25:50.302Z,48.12
2017-11-21T19:28:18.657Z,48.08
2017-11-21T19:30:47.724Z,48.11
2017-11-21T19:33:16.516Z,48.03
2017-11-21T19:35:45.372Z,48.00
2017-11-21T19:38:13.840Z,47.95
2017-11-21T19:40:42.192Z,47.89
2017-11-21T19:43:11.263Z,47.82
2017-11-21T19:45:40.938Z,47.83
2017-11-21T19:48:09.269Z,47.70
2017-11-21T19:50:37.696Z,47.68
2017-11-21T19:53:06.029Z,47.70
2017-11-21T19:55:34.398Z,47.71
2017-11-21T19:58:02.665Z,47.60
2017-11-21T20:00:31.873Z,47.60
2017-11-21T20:03:00.176Z,47.39
2017-11-21T20:05:28.601Z,47.67
2017-11-21T20:07:56.978Z,47.67
2017-11-21T20:10:25.317Z,47.72
2017-11-21T20:12:53.654Z,47.86
2017-11-21T20:15:21.953Z,47.87
2017-11-21T20:17:50.232Z,47.81
2017-11-21T20:20:18.553Z,47.92
2017-11-21T20:22:46.880Z,47.82
2017-11-21T20:25:15.230Z,47.84
2017-11-21T20:27:43.562Z,47.79
2017-11-21T20:30:11.871Z,47.77
2017-11-21T20:32:40.406Z,47.78
2017-11-21T20:35:10.035Z,47.67
2017-11-21T20:37:38.336Z,47.66
2017-11-21T20:40:06.885Z,47.73
2017-11-21T20:42:35.640Z,47.77
2017-11-21T20:45:03.940Z,47.76
2017-11-21T20:47:32.280Z,47.69
2017-11-21T20:50:00.577Z,47.77
2017-11-21T20:52:29.072Z,47.68
2017-11-21T20:54:57.344Z,47.74
2017-11-21T20:57:25.846Z,47.74
2017-11-21T20:59:54.297Z,47.81
2017-11-21T21:02:22.624Z,47.84
2017-11-21T21:04:51.055Z,47.87
2017-11-21T21:07:19.368Z,47.90
2017-11-21T21:09:47.659Z,47.90
2017-11-21T21:12:15.967Z,47.97
2017-11-21T21:14:44.285Z,47.98
2017-11-21T21:17:12.645Z,48.08
2017-11-21T21:19:41.489Z,48.07
2017-11-21T21:22:10.170Z,48.09
2017-11-21T21:24:38.964Z,48.06
2017-11-21T21:27:16.208Z,48.05
2017-11-21T21:29:44.521Z,48.02
2017-11-21T21:32:13.176Z,48.10
2017-11-21T21:34:41.770Z,48.05
2017-11-21T21:37:10.346Z,48.00
2017-11-21T21:39:38.733Z,48.06
2017-11-21T21:42:07.054Z,48.05
2017-11-21T21:44:35.365Z,48.05
2017-11-21T21:47:03.988Z,47.98
2017-11-21T21:49:32.398Z,47.98
2017-11-21T21:52:00.717Z,47.97
2017-11-21T21:54:29.240Z,47.92
2017-11-21T21:56:57.708Z,47.96
2017-11-21T21:59:25.989Z,48.08
2017-11-21T22:01:54.493Z,48.05
2017-11-21T22:04:22.769Z,48.00
2017-11-21T22:06:51.237Z,47.99
2017-11-21T22:09:19.523Z,47.96
2017-11-21T22:11:48.276Z,47.95
2017-11-21T22:14:16.601Z,48.00
2017-11-21T22:16:45.268Z,48.03
2017-11-21T22:19:14.528Z,48.01
2017-11-21T22:21:44.075Z,48.08
2017-11-21T22:24:13.015Z,48.03
2017-11-21T22:26:41.474Z,48.06
2017-11-21T22:29:10.248Z,48.04
2017-11-21T22:31:38.760Z,47.94
2017-11-21T22:34:07.221Z,47.99
2017-11-21T22:36:36.085Z,47.95
2017-11-21T22:39:05.009Z,47.99
2017-11-21T22:41:33.429Z,47.87
2017-11-21T22:44:01.725Z,47.84
2017-11-21T22:46:30.037Z,47.99
2017-11-21T22:48:58.343Z,48.01
2017-11-21T22:51:27.170Z,47.96
2017-11-21T22:53:55.493Z,47.93
2017-11-21T22:56:23.787Z,47.95
2017-11-21T22:58:53.110Z,47.96
2017-11-21T23:01:22.835Z,47.92
2017-11-21T23:03:51.305Z,47.99
2017-11-21T23:06:20.713Z,47.92
2017-11-21T23:08:49.393Z,47.88
2017-11-21T23:11:26.443Z,47.91
2017-11-21T23:13:58.495Z,47.90
2017-11-21T23:16:27.112Z,47.87
2017-11-21T23:18:55.637Z,47.95
2017-11-21T23:21:23.970Z,47.89
2017-11-21T23:23:52.245Z,47.87
2017-11-21T23:26:20.582Z,47.92
2017-11-21T23:28:49.188Z,47.91
2017-11-21T23:31:17.908Z,47.83
2017-11-21T23:33:46.212Z,47.80
2017-11-21T23:36:14.533Z,47.80
2017-11-21T23:38:42.832Z,47.83
2017-11-21T23:41:11.276Z,47.73
2017-11-21T23:43:39.544Z,47.84
2017-11-21T23:46:07.861Z,47.79
2017-11-21T23:48:36.137Z,47.78
2017-11-21T23:51:04.596Z,47.75
2017-11-21T23:53:33.057Z,47.74
2017-11-21T23:56:01.352Z,47.65
2017-11-21T23:58:29.676Z,47.71
